Time;durP1;ratioP1;P1;durP2;ratioP2;P2;SDS_P1;SDS_P2;PMS_P1;PMS_P2;Temp;Humidity;BMP_temperature;BMP_pressure;BME280_temperature;BME280_humidity;BME280_pressure;Samples;Min_cycle;Max_cycle;Signal;HPM_P1;HPM_P2
2023/08/15 00:00:37;;;;;;;0.00;0.00;;;;;;;;;;5027218;28;20102;-87
2023/08/15 00:03:03;;;;;;;0.00;0.00;;;20.60;99.90;;;;;;5030375;28;20076;-87
2023/08/15 00:05:30;;;;;;;0.00;0.00;;;20.60;99.90;;;;;;5028275;28;20052;-86
2023/08/15 00:07:56;;;;;;;0.00;0.00;;;20.50;99.90;;;;;;5029994;28;20022;-86
2023/08/15 00:10:21;;;;;;;0.00;0.00;;;;;;;;;;5044928;28;20124;-86
2023/08/15 00:12:47;;;;;;;0.00;0.00;;;;;;;;;;5032983;28;20056;-86
2023/08/15 00:15:13;;;;;;;0.00;0.00;;;20.50;99.90;;;;;;5026304;28;20458;-87
2023/08/15 00:17:39;;;;;;;0.00;0.00;;;;;;;;;;5027966;28;20116;-87
2023/08/15 00:20:06;;;;;;;0.00;0.00;;;20.40;99.90;;;;;;5030061;28;20098;-88
2023/08/15 00:22:32;;;;;;;0.00;0.00;;;20.40;99.90;;;;;;5027243;28;20540;-87
2023/08/15 00:24:58;;;;;;;0.00;0.00;;;;;;;;;;5027449;28;20026;-87
2023/08/15 00:27:23;;;;;;;0.00;0.00;;;20.50;99.90;;;;;;5028881;28;20034;-88
2023/08/15 00:29:49;;;;;;;0.00;0.00;;;;;;;;;;5029493;28;20025;-87
2023/08/15 00:32:14;;;;;;;0.00;0.00;;;20.50;99.90;;;;;;5025783;28;20067;-87
2023/08/15 00:34:40;;;;;;;0.00;0.00;;;20.50;99.90;;;;;;5025912;28;20057;-87
2023/08/15 00:37:06;;;;;;;0.00;0.00;;;;;;;;;;5029425;28;20052;-86
2023/08/15 00:39:31;;;;;;;0.00;0.00;;;20.60;99.90;;;;;;5031086;28;20115;-87
2023/08/15 00:41:57;;;;;;;0.00;0.00;;;;;;;;;;5021229;28;20160;-87
2023/08/15 00:44:23;;;;;;;0.00;0.00;;;;;;;;;;5025207;28;20026;-88
2023/08/15 00:46:49;;;;;;;0.00;0.00;;;;;;;;;;5026420;28;20022;-87
2023/08/15 00:49:15;;;;;;;0.00;0.00;;;;;;;;;;5028363;28;20126;-86
2023/08/15 00:51:41;;;;;;;0.00;0.00;;;;;;;;;;5026007;28;20032;-88
2023/08/15 00:54:07;;;;;;;0.00;0.00;;;20.40;99.90;;;;;;5030162;28;20022;-87
2023/08/15 00:56:33;;;;;;;0.00;0.00;;;;;;;;;;5030662;28;20048;-87
2023/08/15 00:59:00;;;;;;;0.00;0.00;;;20.40;99.90;;;;;;5026626;28;20502;-86
2023/08/15 01:01:25;;;;;;;0.00;0.00;;;20.40;99.90;;;;;;5038963;28;20056;-88
2023/08/15 01:03:51;;;;;;;0.00;0.00;;;;;;;;;;5029585;28;20502;-87
2023/08/15 01:06:17;;;;;;;0.00;0.00;;;20.50;99.90;;;;;;5021833;28;20033;-87
2023/08/15 01:08:43;;;;;;;0.00;0.00;;;;;;;;;;5045993;28;20044;-88
2023/08/15 01:11:09;;;;;;;0.00;0.00;;;;;;;;;;5027960;28;20036;-87
2023/08/15 01:14:02;;;;;;;0.00;0.00;;;20.30;99.90;;;;;;5029513;28;20084;-86
2023/08/15 01:16:37;;;;;;;0.00;0.00;;;20.40;99.90;;;;;;5030727;28;20136;-86
2023/08/15 01:19:15;;;;;;;0.00;0.00;;;20.30;99.90;;;;;;5023685;28;20040;-87
2023/08/15 01:21:46;;;;;;;0.00;0.00;;;20.30;99.90;;;;;;5024027;28;20614;-86
2023/08/15 01:24:12;;;;;;;0.00;0.00;;;20.30;99.90;;;;;;5027118;28;20057;-86
2023/08/15 01:26:38;;;;;;;0.00;0.00;;;;;;;;;;5027612;28;20064;-87
2023/08/15 01:29:04;;;;;;;0.00;0.00;;;;;;;;;;5022727;28;20045;-87
2023/08/15 01:31:35;;;;;;;0.00;0.00;;;20.20;99.90;;;;;;5022515;28;20021;-86
2023/08/15 01:34:18;;;;;;;0.00;0.00;;;20.30;99.90;;;;;;5025362;28;20393;-87
2023/08/15 01:36:57;;;;;;;0.00;0.00;;;20.20;99.90;;;;;;5028179;28;20014;-86
2023/08/15 01:39:28;;;;;;;0.00;0.00;;;20.20;99.90;;;;;;5032651;28;20439;-88
2023/08/15 01:41:56;;;;;;;0.00;0.00;;;20.30;99.90;;;;;;5026322;28;20034;-86
2023/08/15 01:44:23;;;;;;;0.00;0.00;;;20.30;99.90;;;;;;5030101;28;20021;-87
2023/08/15 01:46:49;;;;;;;0.00;0.00;;;20.30;99.90;;;;;;5026244;28;20071;-87
2023/08/15 01:49:14;;;;;;;0.00;0.00;;;20.20;99.90;;;;;;5030133;28;20021;-85
2023/08/15 01:51:40;;;;;;;0.00;0.00;;;;;;;;;;5029240;28;20018;-86
2023/08/15 01:54:06;;;;;;;0.00;0.00;;;;;;;;;;5044521;28;20029;-86
2023/08/15 01:56:32;;;;;;;0.00;0.00;;;;;;;;;;5028065;28;20014;-86
2023/08/15 01:58:58;;;;;;;0.00;0.00;;;20.40;99.90;;;;;;5026485;28;20064;-86
2023/08/15 02:01:24;;;;;;;0.00;0.00;;;20.40;99.90;;;;;;5029398;28;20242;-86
2023/08/15 02:03:49;;;;;;;0.00;0.00;;;;;;;;;;5039982;28;20105;-87
2023/08/15 02:06:15;;;;;;;0.00;0.00;;;;;;;;;;5028047;28;20021;-87
2023/08/15 02:08:41;;;;;;;0.00;0.00;;;20.40;99.90;;;;;;5025018;28;20076;-86
2023/08/15 02:11:07;;;;;;;0.00;0.00;;;;;;;;;;5028414;28;20057;-88
2023/08/15 02:13:33;;;;;;;0.00;0.00;;;20.40;99.90;;;;;;5023790;28;20636;-87
2023/08/15 02:16:00;;;;;;;0.00;0.00;;;20.40;99.90;;;;;;5028834;28;20167;-86
2023/08/15 02:18:29;;;;;;;0.00;0.00;;;20.50;99.90;;;;;;5028615;28;20065;-87
2023/08/15 02:20:55;;;;;;;0.00;0.00;;;20.40;99.90;;;;;;5045164;28;20029;-87
2023/08/15 02:23:21;;;;;;;0.00;0.00;;;;;;;;;;5029348;28;20479;-86
2023/08/15 02:25:46;;;;;;;0.00;0.00;;;20.30;99.90;;;;;;5028940;28;20018;-86
2023/08/15 02:28:13;;;;;;;0.00;0.00;;;;;;;;;;5028612;28;20538;-87
2023/08/15 02:30:38;;;;;;;0.00;0.00;;;20.50;99.90;;;;;;5016017;28;20437;-86
2023/08/15 02:33:05;;;;;;;0.00;0.00;;;;;;;;;;5046099;28;20034;-87
2023/08/15 02:35:30;;;;;;;0.00;0.00;;;20.40;99.90;;;;;;5024917;28;20052;-87
2023/08/15 02:37:56;;;;;;;0.00;0.00;;;20.30;99.90;;;;;;5027169;28;20526;-87
2023/08/15 02:40:29;;;;;;;0.00;0.00;;;20.20;99.90;;;;;;5047070;28;20057;-86
2023/08/15 02:42:54;;;;;;;0.00;0.00;;;20.20;99.90;;;;;;5025482;28;20034;-87
2023/08/15 02:45:20;;;;;;;0.00;0.00;;;;;;;;;;5026797;28;20029;-87
2023/08/15 02:47:46;;;;;;;0.00;0.00;;;;;;;;;;5024727;28;20079;-87
2023/08/15 02:50:14;;;;;;;0.00;0.00;;;;;;;;;;5030391;28;20560;-87
2023/08/15 02:52:39;;;;;;;0.00;0.00;;;20.00;99.90;;;;;;5027277;28;20060;-87
2023/08/15 02:55:08;;;;;;;0.00;0.00;;;20.10;99.90;;;;;;5030363;28;20062;-87
2023/08/15 02:57:34;;;;;;;0.00;0.00;;;;;;;;;;5029640;28;20238;-87
2023/08/15 03:00:00;;;;;;;0.00;0.00;;;;;;;;;;5039727;28;20037;-87
2023/08/15 03:02:27;;;;;;;0.00;0.00;;;20.10;99.90;;;;;;5026353;28;20030;-87
2023/08/15 03:04:52;;;;;;;0.00;0.00;;;20.10;99.90;;;;;;5024581;28;20029;-88
2023/08/15 03:07:18;;;;;;;0.00;0.00;;;;;;;;;;5029807;28;20471;-88
2023/08/15 03:09:44;;;;;;;0.00;0.00;;;;;;;;;;5030547;28;20026;-88
2023/08/15 03:12:10;;;;;;;0.00;0.00;;;;;;;;;;5020000;28;20037;-88
2023/08/15 03:14:36;;;;;;;0.00;0.00;;;;;;;;;;5028954;28;20021;-87
2023/08/15 03:17:03;;;;;;;0.00;0.00;;;20.00;99.90;;;;;;5029653;28;20029;-87
2023/08/15 03:19:28;;;;;;;0.00;0.00;;;20.00;99.90;;;;;;5032355;28;20030;-87
2023/08/15 03:21:54;;;;;;;0.00;0.00;;;;;;;;;;5031761;28;20023;-88
2023/08/15 03:24:20;;;;;;;0.00;0.00;;;;;;;;;;5029728;28;20450;-88
2023/08/15 03:26:46;;;;;;;0.00;0.00;;;20.00;99.90;;;;;;5024059;28;20367;-87
2023/08/15 03:29:12;;;;;;;0.00;0.00;;;;;;;;;;5027194;28;20483;-87
2023/08/15 03:31:38;;;;;;;0.00;0.00;;;;;;;;;;5031203;28;20043;-87
2023/08/15 03:34:03;;;;;;;0.00;0.00;;;19.90;99.90;;;;;;5030754;28;20117;-87
2023/08/15 03:36:29;;;;;;;0.00;0.00;;;19.90;99.90;;;;;;5032439;28;20057;-88
2023/08/15 03:38:55;;;;;;;0.00;0.00;;;;;;;;;;5026293;28;20022;-87
2023/08/15 03:41:21;;;;;;;0.00;0.00;;;19.80;99.90;;;;;;5031018;28;20171;-86
2023/08/15 03:43:46;;;;;;;0.00;0.00;;;;;;;;;;5028577;28;20017;-86
2023/08/15 03:46:12;;;;;;;0.00;0.00;;;19.70;99.90;;;;;;5030761;28;20075;-87
2023/08/15 03:48:38;;;;;;;0.00;0.00;;;19.70;99.90;;;;;;5030093;28;20026;-87
2023/08/15 03:51:04;;;;;;;0.00;0.00;;;19.80;99.90;;;;;;5029555;28;20030;-86
2023/08/15 03:53:29;;;;;;;0.00;0.00;;;19.90;99.90;;;;;;5032132;28;20053;-87
2023/08/15 03:55:56;;;;;;;0.00;0.00;;;20.00;99.90;;;;;;5031618;28;20498;-87
2023/08/15 03:58:22;;;;;;;0.00;0.00;;;20.10;99.90;;;;;;5028741;28;20113;-88
2023/08/15 04:00:48;;;;;;;0.00;0.00;;;20.10;99.90;;;;;;5023285;28;20026;-88
2023/08/15 04:03:15;;;;;;;0.00;0.00;;;20.10;99.90;;;;;;5031979;28;20026;-87
2023/08/15 04:05:44;;;;;;;0.00;0.00;;;20.00;99.90;;;;;;5031538;28;20060;-87
2023/08/15 04:08:09;;;;;;;0.00;0.00;;;19.90;99.90;;;;;;5022966;28;20017;-87
2023/08/15 04:10:39;;;;;;;0.00;0.00;;;19.90;99.90;;;;;;5024474;28;20053;-87
2023/08/15 04:13:09;;;;;;;0.00;0.00;;;19.80;99.90;;;;;;5030918;28;20494;-87
2023/08/15 04:15:38;;;;;;;0.00;0.00;;;17.30;99.90;;;;;;5032999;28;20069;-87
2023/08/15 04:18:13;;;;;;;0.00;0.00;;;19.90;99.90;;;;;;5030864;28;20036;-87
2023/08/15 04:20:39;;;;;;;0.00;0.00;;;19.90;99.90;;;;;;5042746;28;20112;-87
2023/08/15 04:23:06;;;;;;;0.00;0.00;;;19.90;99.90;;;;;;5028240;28;20036;-88
2023/08/15 04:25:37;;;;;;;0.00;0.00;;;19.90;99.90;;;;;;5029267;28;20030;-88
2023/08/15 04:28:03;;;;;;;0.00;0.00;;;19.90;99.90;;;;;;5026732;28;20025;-88
2023/08/15 04:30:30;;;;;;;0.00;0.00;;;20.00;99.90;;;;;;5024736;28;20368;-87
2023/08/15 04:32:58;;;;;;;0.00;0.00;;;20.10;99.90;;;;;;5023983;28;20025;-87
2023/08/15 04:35:24;;;;;;;0.00;0.00;;;20.20;99.90;;;;;;5027305;28;20025;-87
2023/08/15 04:37:50;;;;;;;0.00;0.00;;;;;;;;;;5027654;28;20394;-87
2023/08/15 04:40:29;;;;;;;0.00;0.00;;;20.30;99.90;;;;;;5030552;28;20033;-87
2023/08/15 04:42:55;;;;;;;;;;;21.80;99.90;;;;;;5029250;28;20029;-87
2023/08/15 04:45:20;;;;;;;0.00;0.00;;;20.40;99.90;;;;;;5027069;28;19955;-87
2023/08/15 04:47:46;;;;;;;0.00;0.00;;;20.40;99.90;;;;;;5044727;28;20033;-86
2023/08/15 04:50:12;;;;;;;0.00;0.00;;;;;;;;;;5026055;28;20080;-88
2023/08/15 04:52:38;;;;;;;0.00;0.00;;;;;;;;;;5047926;28;20091;-86
2023/08/15 04:55:04;;;;;;;0.00;0.00;;;20.40;99.90;;;;;;5025935;28;20156;-87
2023/08/15 04:57:29;;;;;;;0.00;0.00;;;20.50;99.90;;;;;;5043194;28;20124;-86
2023/08/15 04:59:55;;;;;;;0.00;0.00;;;;;;;;;;5027047;28;20557;-86
2023/08/15 05:02:21;;;;;;;0.00;0.00;;;;;;;;;;5029256;28;20022;-86
2023/08/15 05:04:47;;;;;;;0.00;0.00;;;;;;;;;;5028176;28;20034;-86
2023/08/15 05:07:13;;;;;;;0.00;0.00;;;;;;;;;;5029960;28;20025;-86
2023/08/15 05:09:39;;;;;;;0.00;0.00;;;;;;;;;;5028019;28;20033;-86
2023/08/15 05:12:05;;;;;;;0.00;0.00;;;20.60;99.90;;;;;;5020636;28;20513;-87
2023/08/15 05:14:31;;;;;;;0.00;0.00;;;;;;;;;;5029329;28;20041;-86
2023/08/15 05:16:57;;;;;;;0.00;0.00;;;;;;;;;;5030358;28;20033;-85
2023/08/15 05:19:24;;;;;;;0.00;0.00;;;;;;;;;;5027836;28;20033;-86
2023/08/15 05:21:49;;;;;;;0.00;0.00;;;20.50;99.90;;;;;;5029598;28;20116;-88
2023/08/15 05:24:15;;;;;;;0.00;0.00;;;;;;;;;;5027122;28;20100;-86
2023/08/15 05:26:41;;;;;;;0.00;0.00;;;20.60;99.90;;;;;;5027686;28;20112;-86
2023/08/15 05:29:07;;;;;;;0.00;0.00;;;;;;;;;;5024898;28;20532;-89
2023/08/15 05:31:33;;;;;;;0.00;0.00;;;20.60;99.90;;;;;;5020212;28;20530;-87
2023/08/15 05:33:58;;;;;;;0.00;0.00;;;20.60;99.90;;;;;;5026053;28;20037;-88
2023/08/15 05:36:24;;;;;;;0.00;0.00;;;;;;;;;;5045445;28;20048;-87
2023/08/15 05:38:50;;;;;;;0.00;0.00;;;20.50;99.90;;;;;;5029087;28;20029;-87
2023/08/15 05:41:16;;;;;;;0.00;0.00;;;;;;;;;;5031586;28;20080;-86
2023/08/15 05:43:42;;;;;;;0.00;0.00;;;20.50;99.90;;;;;;5035390;28;20021;-87
2023/08/15 05:46:08;;;;;;;0.00;0.00;;;;;;;;;;5030227;28;20393;-87
2023/08/15 05:48:33;;;;;;;0.00;0.00;;;;;;;;;;5028117;28;20017;-89
2023/08/15 05:50:59;;;;;;;0.00;0.00;;;;;;;;;;5028809;28;20052;-86
2023/08/15 05:53:25;;;;;;;0.00;0.00;;;20.60;99.90;;;;;;5026045;28;20033;-88
2023/08/15 05:55:51;;;;;;;0.00;0.00;;;20.60;99.90;;;;;;5030851;28;20316;-86
2023/08/15 05:58:17;;;;;;;0.00;0.00;;;20.60;99.90;;;;;;5037062;28;20021;-86
2023/08/15 06:00:43;;;;;;;0.00;0.00;;;;;;;;;;5030027;28;20533;-87
2023/08/15 06:03:08;;;;;;;0.00;0.00;;;20.40;99.90;;;;;;5031144;28;20026;-87
2023/08/15 06:05:34;;;;;;;0.00;0.00;;;20.40;99.90;;;;;;5029004;28;20022;-87
2023/08/15 06:08:00;;;;;;;0.00;0.00;;;;;;;;;;5030558;28;20033;-88
2023/08/15 06:10:26;;;;;;;0.00;0.00;;;;;;;;;;5029823;28;20030;-85
2023/08/15 06:12:51;;;;;;;0.00;0.00;;;;;;;;;;5029939;28;20042;-85
2023/08/15 06:15:18;;;;;;;0.00;0.00;;;;;;;;;;5031597;28;20034;-86
2023/08/15 06:17:43;;;;;;;0.00;0.00;;;20.40;99.90;;;;;;5024923;28;20076;-86
2023/08/15 06:20:10;;;;;;;0.00;0.00;;;20.40;99.90;;;;;;5029787;28;20026;-86
2023/08/15 06:22:36;;;;;;;0.00;0.00;;;20.40;99.90;;;;;;5032710;28;20533;-87
2023/08/15 06:25:02;;;;;;;0.00;0.00;;;20.30;99.90;;;;;;5027271;28;20033;-86
2023/08/15 06:27:27;;;;;;;0.00;0.00;;;20.50;99.90;;;;;;5024727;28;20071;-86
2023/08/15 06:29:53;;;;;;;0.00;0.00;;;;;;;;;;5030931;28;20029;-88
2023/08/15 06:32:30;;;;;;;0.00;0.00;;;20.50;99.90;;;;;;5027930;28;20104;-87
2023/08/15 06:34:55;;;;;;;0.00;0.00;;;20.50;99.90;;;;;;5027262;28;20029;-88
2023/08/15 06:37:21;;;;;;;0.00;0.00;;;;;;;;;;5025386;28;20140;-85
2023/08/15 06:39:47;;;;;;;0.00;0.00;;;;;;;;;;5030693;28;20032;-86
2023/08/15 06:42:14;;;;;;;0.00;0.00;;;;;;;;;;5030934;28;20029;-86
2023/08/15 06:44:42;;;;;;;0.00;0.00;;;20.50;99.90;;;;;;5034967;28;20487;-88
2023/08/15 06:47:08;;;;;;;0.00;0.00;;;;;;;;;;5049827;28;20029;-87
2023/08/15 06:49:34;;;;;;;0.00;0.00;;;20.80;99.90;;;;;;5030905;28;20044;-86
2023/08/15 06:52:00;;;;;;;0.00;0.00;;;20.80;99.90;;;;;;5032297;28;20026;-88
2023/08/15 06:54:25;;;;;;;0.00;0.00;;;20.70;99.90;;;;;;5025968;28;20049;-88
2023/08/15 06:56:51;;;;;;;0.00;0.00;;;;;;;;;;5031340;28;20030;-87
2023/08/15 06:59:17;;;;;;;0.00;0.00;;;20.80;99.90;;;;;;5033595;28;20028;-88
2023/08/15 07:01:43;;;;;;;0.00;0.00;;;21.00;99.90;;;;;;5035011;28;20056;-89
2023/08/15 07:04:09;;;;;;;0.00;0.00;;;21.10;99.90;;;;;;5032816;28;20022;-87
2023/08/15 07:06:37;;;;;;;0.00;0.00;;;21.30;99.90;;;;;;5029404;28;20064;-88
2023/08/15 07:09:06;;;;;;;0.00;0.00;;;21.40;99.90;;;;;;5031213;28;20017;-89
2023/08/15 07:11:32;;;;;;;0.00;0.00;;;;;;;;;;5028199;28;20097;-90
2023/08/15 07:13:58;;;;;;;0.00;0.00;;;;;;;;;;5033774;28;20080;-89
2023/08/15 07:16:24;;;;;;;0.00;0.00;;;;;;;;;;5032597;28;20029;-89
2023/08/15 07:18:50;;;;;;;0.00;0.00;;;;;;;;;;5026082;28;20021;-89
2023/08/15 07:21:16;;;;;;;0.00;0.00;;;21.70;99.90;;;;;;5032188;28;20025;-89
2023/08/15 07:23:41;;;;;;;0.00;0.00;;;21.70;99.90;;;;;;5032843;28;20104;-89
2023/08/15 07:26:07;;;;;;;0.00;0.00;;;;;;;;;;5029383;28;20483;-89
2023/08/15 07:28:33;;;;;;;0.00;0.00;;;21.80;99.90;;;;;;5048993;28;20049;-88
2023/08/15 07:30:59;;;;;;;0.00;0.00;;;;;;;;;;5032555;28;20060;-88
2023/08/15 07:33:25;;;;;;;0.00;0.00;;;22.00;99.90;;;;;;5030546;28;20038;-88
2023/08/15 07:35:50;;;;;;;0.00;0.00;;;22.10;99.90;;;;;;5039522;28;20033;-88
2023/08/15 07:38:16;;;;;;;0.00;0.00;;;;;;;;;;5032271;28;20040;-89
2023/08/15 07:40:42;;;;;;;0.00;0.00;;;;;;;;;;5025108;28;20064;-88
2023/08/15 07:43:08;;;;;;;0.00;0.00;;;;;;;;;;5030532;28;20025;-87
2023/08/15 07:45:34;;;;;;;0.00;0.00;;;22.50;99.90;;;;;;5030447;28;20022;-88
2023/08/15 07:48:00;;;;;;;0.00;0.00;;;;;;;;;;5049345;28;20029;-90
2023/08/15 07:50:28;;;;;;;0.00;0.00;;;22.50;99.90;;;;;;5030046;28;20037;-88
2023/08/15 07:52:54;;;;;;;0.00;0.00;;;22.60;99.90;;;;;;5023305;28;20121;-88
2023/08/15 07:55:21;;;;;;;0.00;0.00;;;22.70;99.90;;;;;;5027831;28;20030;-88
2023/08/15 07:57:46;;;;;;;0.00;0.00;;;22.70;99.90;;;;;;5032243;28;20029;-88
2023/08/15 08:00:13;;;;;;;0.00;0.00;;;22.90;99.90;;;;;;5031476;28;20028;-88
2023/08/15 08:02:40;;;;;;;0.00;0.00;;;23.00;99.90;;;;;;5033363;28;20030;-88
2023/08/15 08:05:07;;;;;;;0.00;0.00;;;23.10;99.90;;;;;;5023385;28;20547;-87
2023/08/15 08:07:37;;;;;;;0.00;0.00;;;23.10;99.90;;;;;;5047810;28;20433;-88
2023/08/15 08:10:03;;;;;;;0.00;0.00;;;24.20;99.90;;;;;;5031048;28;20024;-87
2023/08/15 08:12:30;;;;;;;0.00;0.00;;;23.10;99.90;;;;;;5029669;28;20037;-88
2023/08/15 08:14:56;;;;;;;0.00;0.00;;;23.10;99.90;;;;;;5030396;28;20033;-87
2023/08/15 08:17:21;;;;;;;0.00;0.00;;;23.10;99.90;;;;;;5030567;28;20512;-88
2023/08/15 08:19:47;;;;;;;0.00;0.00;;;;;;;;;;5025901;28;20029;-87
2023/08/15 08:22:13;;;;;;;0.00;0.00;;;;;;;;;;5020274;28;20080;-88
2023/08/15 08:24:39;;;;;;;0.00;0.00;;;23.10;99.90;;;;;;5026691;28;20033;-88
2023/08/15 08:27:05;;;;;;;0.00;0.00;;;;;;;;;;5031726;28;20021;-89
2023/08/15 08:29:31;;;;;;;0.00;0.00;;;23.10;99.90;;;;;;5031306;28;20455;-89
2023/08/15 08:31:56;;;;;;;0.00;0.00;;;23.00;99.90;;;;;;5028992;28;20018;-87
2023/08/15 08:34:22;;;;;;;0.00;0.00;;;22.90;99.90;;;;;;5047550;28;20037;-88
2023/08/15 08:36:47;;;;;;;0.00;0.00;;;22.90;99.90;;;;;;5029408;28;20025;-88
2023/08/15 08:39:13;;;;;;;0.00;0.00;;;23.00;99.90;;;;;;5030994;28;20024;-89
2023/08/15 08:41:39;;;;;;;0.00;0.00;;;23.00;99.90;;;;;;5032903;28;20036;-90
2023/08/15 08:44:06;;;;;;;0.00;0.00;;;24.40;99.90;;;;;;5030526;28;20501;-89
2023/08/15 08:46:33;;;;;;;0.00;0.00;;;22.80;99.90;;;;;;5029811;28;20030;-89
2023/08/15 08:49:00;;;;;;;0.00;0.00;;;22.80;99.90;;;;;;5029006;28;20371;-87
2023/08/15 08:51:27;;;;;;;0.00;0.00;;;22.70;99.90;;;;;;5029598;28;20042;-88
2023/08/15 08:53:53;;;;;;;0.00;0.00;;;22.70;99.90;;;;;;5031550;28;20114;-88
2023/08/15 08:56:22;;;;;;;0.00;0.00;;;22.90;99.90;;;;;;5026500;28;20032;-88
2023/08/15 08:58:53;;;;;;;0.00;0.00;;;22.90;99.90;;;;;;5024753;28;20056;-89
2023/08/15 09:01:19;;;;;;;0.00;0.00;;;22.90;99.90;;;;;;5032212;28;20574;-90
2023/08/15 09:03:45;;;;;;;0.00;0.00;;;23.00;99.90;;;;;;5037732;28;20057;-89
2023/08/15 09:06:11;;;;;;;0.00;0.00;;;26.10;99.90;;;;;;5029319;28;20511;-90
2023/08/15 09:08:37;;;;;;;0.00;0.00;;;;;;;;;;5031089;28;20032;-90
2023/08/15 09:11:03;;;;;;;0.00;0.00;;;23.10;99.90;;;;;;5027266;28;20433;-89
2023/08/15 09:13:28;;;;;;;0.00;0.00;;;23.10;99.90;;;;;;5030639;28;20029;-88
2023/08/15 09:15:59;;;;;;;0.00;0.00;;;;;;;;;;5029572;28;20029;-89
2023/08/15 09:18:27;;;;;;;0.00;0.00;;;23.00;99.90;;;;;;5031498;28;20427;-88
2023/08/15 09:20:52;;;;;;;0.00;0.00;;;23.00;99.90;;;;;;5047069;28;20053;-89
2023/08/15 09:23:18;;;;;;;0.00;0.00;;;24.30;99.90;;;;;;5030368;28;20030;-90
2023/08/15 09:25:44;;;;;;;0.00;0.00;;;;;;;;;;5032540;28;20532;-90
2023/08/15 09:28:10;;;;;;;0.00;0.00;;;23.50;99.90;;;;;;5026598;28;20168;-87
2023/08/15 09:30:36;;;;;;;0.00;0.00;;;;;;;;;;5031152;28;20632;-90
2023/08/15 09:33:03;;;;;;;0.00;0.00;;;23.70;99.90;;;;;;5023634;28;20030;-90
2023/08/15 09:35:31;;;;;;;0.00;0.00;;;23.80;99.90;;;;;;5031260;28;20071;-90
2023/08/15 09:37:57;;;;;;;0.00;0.00;;;;;;;;;;5028863;28;20061;-88
2023/08/15 09:40:26;;;;;;;0.00;0.00;;;24.40;99.90;;;;;;5023303;28;20072;-89
2023/08/15 09:42:52;;;;;;;0.00;0.00;;;;;;;;;;5027207;28;20017;-89
2023/08/15 09:45:18;;;;;;;0.00;0.00;;;24.50;99.90;;;;;;5028734;28;20041;-89
2023/08/15 09:47:45;;;;;;;0.00;0.00;;;24.70;99.90;;;;;;5029474;28;20024;-90
2023/08/15 09:50:12;;;;;;;0.00;0.00;;;24.80;99.90;;;;;;5039835;28;20029;-89
2023/08/15 09:52:43;;;;;;;0.00;0.00;;;25.00;99.90;;;;;;5041696;28;20034;-88
2023/08/15 09:55:14;;;;;;;0.00;0.00;;;25.00;99.90;;;;;;5023151;28;20116;-88
2023/08/15 09:57:42;;;;;;;0.00;0.00;;;25.00;99.90;;;;;;5024696;28;20040;-89
2023/08/15 10:00:11;;;;;;;0.00;0.00;;;26.60;99.90;;;;;;5039885;28;20041;-90
2023/08/15 10:02:43;;;;;;;0.00;0.00;;;25.60;99.90;;;;;;5029552;28;20055;-89
2023/08/15 10:05:11;;;;;;;0.00;0.00;;;25.80;99.90;;;;;;5023966;28;20505;-88
2023/08/15 10:07:38;;;;;;;0.00;0.00;;;;;;;;;;5028112;28;20029;-89
2023/08/15 10:10:05;;;;;;;0.00;0.00;;;26.10;99.90;;;;;;5027377;28;20033;-88
2023/08/15 10:12:32;;;;;;;0.00;0.00;;;26.10;99.90;;;;;;5029126;28;20044;-89
2023/08/15 10:14:59;;;;;;;0.00;0.00;;;26.10;99.90;;;;;;5021737;28;20057;-90
2023/08/15 10:17:26;;;;;;;0.00;0.00;;;;;;;;;;5027914;28;20037;-88
2023/08/15 10:19:52;;;;;;;0.00;0.00;;;;;;;;;;5031294;28;20037;-89
2023/08/15 10:22:30;;;;;;;0.00;0.00;;;26.30;99.90;;;;;;5037028;28;20076;-88
2023/08/15 10:25:20;;;;;;;0.00;0.00;;;26.30;99.90;;;;;;5032456;28;20635;-89
2023/08/15 10:27:51;;;;;;;0.00;0.00;;;26.30;99.90;;;;;;5049243;28;20037;-88
2023/08/15 10:30:46;;;;;;;0.00;0.00;;;26.30;99.90;;;;;;5030694;28;20527;-87
2023/08/15 10:33:12;;;;;;;0.00;0.00;;;26.30;99.90;;;;;;5031977;28;20111;-89
2023/08/15 10:35:38;;;;;;;0.00;0.00;;;;;;;;;;5031263;28;20578;-88
2023/08/15 10:38:14;;;;;;;0.00;0.00;;;26.00;99.90;;;;;;5027629;28;20033;-87
2023/08/15 10:40:42;;;;;;;0.00;0.00;;;26.30;99.90;;;;;;5030204;28;20033;-87
2023/08/15 10:43:17;;;;;;;0.00;0.00;;;26.20;99.90;;;;;;5031248;28;20026;-88
2023/08/15 10:46:12;;;;;;;0.00;0.00;;;26.40;99.90;;;;;;5031866;28;20116;-88
2023/08/15 10:48:49;;;;;;;0.00;0.00;;;26.40;99.90;;;;;;5030992;28;20022;-89
2023/08/15 10:51:29;;;;;;;0.00;0.00;;;26.50;99.90;;;;;;5038513;28;20133;-88
2023/08/15 10:54:03;;;;;;;0.00;0.00;;;26.60;99.90;;;;;;5029341;28;20091;-87
2023/08/15 10:56:32;;;;;;;0.00;0.00;;;26.80;99.90;;;;;;5021523;28;20079;-88
2023/08/15 10:58:58;;;;;;;0.00;0.00;;;26.90;99.90;;;;;;5022273;28;20033;-87
2023/08/15 11:01:27;;;;;;;0.00;0.00;;;27.10;99.90;;;;;;5028306;28;20025;-85
2023/08/15 11:03:55;;;;;;;0.00;0.00;;;27.20;99.90;;;;;;5025826;28;20053;-87
2023/08/15 11:06:21;;;;;;;0.00;0.00;;;;;;;;;;5044047;28;20037;-88
2023/08/15 11:08:51;;;;;;;0.00;0.00;;;27.10;99.90;;;;;;5029916;28;20022;-88
2023/08/15 11:11:17;;;;;;;0.00;0.00;;;;;;;;;;5023883;28;20033;-89
2023/08/15 11:13:47;;;;;;;0.00;0.00;;;27.00;99.90;;;;;;5031162;28;20033;-88
2023/08/15 11:16:15;;;;;;;0.00;0.00;;;27.10;99.90;;;;;;5026809;28;20022;-88
2023/08/15 11:18:42;;;;;;;0.00;0.00;;;27.00;99.90;;;;;;5028533;28;20021;-87
2023/08/15 11:21:09;;;;;;;0.00;0.00;;;27.20;99.90;;;;;;5045561;28;20021;-89
2023/08/15 11:23:35;;;;;;;0.00;0.00;;;28.30;99.90;;;;;;5029678;28;20064;-89
2023/08/15 11:26:07;;;;;;;0.00;0.00;;;27.50;99.90;;;;;;5028757;28;20045;-87
2023/08/15 11:28:34;;;;;;;0.00;0.00;;;27.70;99.90;;;;;;5015946;28;20412;-89
2023/08/15 11:31:02;;;;;;;0.00;0.00;;;27.80;99.90;;;;;;5025412;28;20041;-88
2023/08/15 11:33:31;;;;;;;0.00;0.00;;;27.70;99.90;;;;;;5026500;28;20037;-89
2023/08/15 11:36:06;;;;;;;0.00;0.00;;;28.00;99.90;;;;;;5030199;28;20056;-87
2023/08/15 11:38:33;;;;;;;0.00;0.00;;;27.90;99.90;;;;;;5028655;28;20116;-88
2023/08/15 11:41:01;;;;;;;0.00;0.00;;;27.80;99.90;;;;;;5036965;28;20842;-87
2023/08/15 11:43:27;;;;;;;0.00;0.00;;;;;;;;;;5023635;28;20017;-88
2023/08/15 11:45:53;;;;;;;0.00;0.00;;;;;;;;;;5027821;28;20071;-87
2023/08/15 11:48:19;;;;;;;0.00;0.00;;;27.70;99.90;;;;;;5028963;28;20021;-86
2023/08/15 11:50:45;;;;;;;0.00;0.00;;;;;;;;;;5027076;28;20022;-88
2023/08/15 11:53:16;;;;;;;0.00;0.00;;;27.40;99.90;;;;;;5027767;28;20021;-87
2023/08/15 11:55:43;;;;;;;0.00;0.00;;;27.50;99.90;;;;;;5039102;28;20044;-89
2023/08/15 11:58:29;;;;;;;0.00;0.00;;;29.20;99.90;;;;;;5025823;28;20033;-89
2023/08/15 12:01:13;;;;;;;0.00;0.00;;;27.80;99.90;;;;;;5025065;28;20029;-88
2023/08/15 12:03:39;;;;;;;0.00;0.00;;;;;;;;;;5037984;28;20105;-90
2023/08/15 12:06:10;;;;;;;0.00;0.00;;;27.90;99.90;;;;;;5027178;28;20018;-88
2023/08/15 12:08:38;;;;;;;0.00;0.00;;;27.90;99.90;;;;;;5025680;28;20483;-88
2023/08/15 12:11:07;;;;;;;0.00;0.00;;;29.10;99.90;;;;;;5028004;28;20033;-88
2023/08/15 12:13:38;;;;;;;0.00;0.00;;;28.50;99.90;;;;;;5027162;28;20041;-90
2023/08/15 12:16:05;;;;;;;0.00;0.00;;;28.10;99.90;;;;;;5030122;28;20067;-89
2023/08/15 12:18:32;;;;;;;0.00;0.00;;;28.10;99.90;;;;;;5025548;28;20446;-88
2023/08/15 12:20:59;;;;;;;0.00;0.00;;;;;;;;;;5029924;28;20121;-89
2023/08/15 12:23:25;;;;;;;0.00;0.00;;;27.80;99.90;;;;;;5025681;28;20053;-89
2023/08/15 12:25:51;;;;;;;0.00;0.00;;;;;;;;;;5024997;28;20475;-88
2023/08/15 12:28:18;;;;;;;0.00;0.00;;;;;;;;;;5023112;28;20113;-88
2023/08/15 12:30:45;;;;;;;0.00;0.00;;;27.60;99.90;;;;;;5021230;28;20025;-88
2023/08/15 12:33:11;;;;;;;0.00;0.00;;;;;;;;;;5025295;28;20386;-87
2023/08/15 12:35:37;;;;;;;0.00;0.00;;;27.40;99.90;;;;;;5018880;28;20040;-87
2023/08/15 12:38:03;;;;;;;0.00;0.00;;;;;;;;;;5041661;28;20112;-89
2023/08/15 12:40:29;;;;;;;0.00;0.00;;;27.20;99.90;;;;;;5025524;28;20523;-88
2023/08/15 12:42:55;;;;;;;0.00;0.00;;;;;;;;;;5021602;28;20057;-90
2023/08/15 12:45:20;;;;;;;0.00;0.00;;;27.20;99.90;;;;;;5029045;28;20068;-88
2023/08/15 12:47:46;;;;;;;0.00;0.00;;;27.20;99.90;;;;;;5021445;28;20018;-86
2023/08/15 12:50:13;;;;;;;0.00;0.00;;;27.60;99.90;;;;;;5039528;28;20029;-88
2023/08/15 12:52:38;;;;;;;0.00;0.00;;;27.70;99.90;;;;;;5026679;28;20021;-89
2023/08/15 12:55:04;;;;;;;0.00;0.00;;;27.70;99.90;;;;;;5028990;28;20071;-88
2023/08/15 12:57:30;;;;;;;0.00;0.00;;;;;;;;;;5029280;28;20071;-87
2023/08/15 12:59:56;;;;;;;0.00;0.00;;;;;;;;;;5025999;28;20037;-87
2023/08/15 13:02:22;;;;;;;0.00;0.00;;;27.70;99.90;;;;;;5028005;28;20036;-88
2023/08/15 13:04:48;;;;;;;0.00;0.00;;;;;;;;;;5030324;28;20034;-87
2023/08/15 13:07:14;;;;;;;0.00;0.00;;;;;;;;;;5023336;28;20080;-87
2023/08/15 13:09:40;;;;;;;0.00;0.00;;;;;;;;;;5023215;28;20075;-89
2023/08/15 13:12:06;;;;;;;0.00;0.00;;;27.90;99.90;;;;;;5028662;28;20029;-88
2023/08/15 13:14:35;;;;;;;0.00;0.00;;;;;;;;;;5025997;28;20030;-88
2023/08/15 13:17:01;;;;;;;0.00;0.00;;;;;;;;;;5021749;28;20021;-88
2023/08/15 13:19:28;;;;;;;0.00;0.00;;;;;;;;;;5029682;28;20025;-87
2023/08/15 13:21:55;;;;;;;0.00;0.00;;;;;;;;;;5024413;28;20038;-88
2023/08/15 13:24:21;;;;;;;0.00;0.00;;;;;;;;;;5022464;28;20028;-88